Abercrombie, North Dakota
Current Conditions -  °F | °C
As of 2:55 PM on Friday 19 Dec 2014 (Local Time) from KBWP Reporting Station
Overcast Overcast  
Wind Chill: 22°   Ceiling: 900
Heat Index: 30°   Visibility: 5mi
Dew Point: 28°   Wind: 9mph
Humidity: 93%   Direction: 160°SSE
Pressure: 30.04"   Gusts: NA
Location:  46.45°N, 96.73°W
Report Text: KBWP 192055Z AUTO 16008KT 5SM OVC009 M01/M02 A3004 RMK AO1
Loading
Personal Weather Stations






























Interactive Weather Map New forecast layout! Learn more

10-Day Weather Forecast

Advertisements
Track Severe Weather on mobile